OSDIOSLK

Guest
Details From OSDI - DAMASCUS INTL
To OSLK - BASSEL AL ASSAD INTL
Flight Number -
Tags generated
Created
Modified
Stats Distance 123 nm / 228 km
Max Altitude 12,400 ft / 3,780 m
Waypoints 3
Social Downloads 1
Likes 0
Share VATSIM

Download

Looking for another format? Having issues loading an existing format? Contact us
Advertisement - Login to hide

Notes

Basic altitude profile: - Ascent Rate: 2200ft/min - Ascent Speed: 250kts - Cruise Altitude: 12000ft - Cruise Speed: 320kts - Descent Rate: 2100ft/min - Descent Speed: 250kts Options: - Use NATs: yes - Use PACOTS: yes - Use low airways: yes - Use high airways: no

Route

OSDI LATEB OSLK

ID Type Via Altitude Latitude Longitude Leg Dist Tot Dist Heading (true) Name
O OSDI APT - 0 ft / 0 m 33.41063˚ 36.51426˚ - 0 nm - DAMASCUS INTL
LATEB FIX - 12,400 ft / 3,780 m 34.03167˚ 36.41000˚ 37 nm 37 nm 352° / 352° -
O OSLK APT - 0 ft / 0 m 35.40128˚ 35.94844˚ 85 nm 123 nm 345° / 344° BASSEL AL ASSAD INTL

Altitude Profile

Advertisement - Login to hide

OSDI

Details ICAO OSDI (DAM)
Name DAMASCUS INTL
Region Syria
Timezone Asia/Damascus (UTC+2.0)
Stats Elevation 2,020 ft / 616 m (AMSL)
Location 33.410635° 36.514265°
Runways 2
Magnetic Variation 4.872° E

METAR

OSDI 161700Z 03004KT CAVOK 10/02 Q1024

Decode

TAF

TAF OSDI 1606/1712 VRB03KT CAVOK TEMPO 1612/1618 23010KT 9999 FEW030

Decode

Departure Runways

ID Width Length Bearing (true) Bearing (mag) Surface Threshold Offset Overrun Length
05L 148 ft / 45 m 11,808 ft / 3,599 m 48.36° 43.49° Asphalt 0 ft / 0 m 197 ft / 60 m
05R 148 ft / 45 m 11,674 ft / 3,558 m 48.33° 43.46° Asphalt 0 ft / 0 m 197 ft / 60 m
23L 148 ft / 45 m 11,674 ft / 3,558 m 228.35° 223.48° Asphalt 0 ft / 0 m 197 ft / 60 m
23R 148 ft / 45 m 11,808 ft / 3,599 m 228.38° 223.51° Asphalt 0 ft / 0 m 197 ft / 60 m

OSLK

Details ICAO OSLK (LTK)
Name BASSEL AL ASSAD INTL
Region Syria
Timezone Asia/Damascus (UTC+2.0)
Stats Elevation 157 ft / 48 m (AMSL)
Location 35.401282° 35.948444°
Runways 1
Magnetic Variation 5.140° E

METAR

OSLK 161700Z 09006KT 8000 FEW026 SCT030 15/12 Q1022

Decode

TAF

TAF TAF OSLK 1606/1706 20015KT 9999 SCT030 BECMG 1618/1620 8000 BKN030

Decode

Destination Runways

ID Width Length Bearing (true) Bearing (mag) Surface Threshold Offset Overrun Length
17 148 ft / 45 m 9,209 ft / 2,807 m 176.62° 171.48° Asphalt 0 ft / 0 m 197 ft / 60 m
35 148 ft / 45 m 9,209 ft / 2,807 m 356.62° 351.48° Asphalt 590 ft / 180 m 0 ft / 0 m

Approach Navaids

Runway Type Ident Frequency Range Bearing (true) Bearing (mag) Slope Elevation
17 Localiser IBA 109.10 MHz 18 nm / 33 km 176.63° 171.49° - 157 ft / 48 m (AMSL)
17 Glidescope IBA 109.10 MHz 10 nm / 19 km 176.62° 171.48° 3.00° 157 ft / 48 m (AMSL)

Popular Alternatives